createdAt,value
2018-11-06T00:00:30.610Z,67.87
2018-11-06T00:03:04.872Z,68.57
2018-11-06T00:05:34.215Z,71.10
2018-11-06T00:08:03.518Z,74.43
2018-11-06T00:10:32.972Z,74.40
2018-11-06T00:13:02.132Z,73.57
2018-11-06T00:15:31.315Z,68.60
2018-11-06T00:18:00.612Z,66.47
2018-11-06T00:20:29.934Z,67.80
2018-11-06T00:22:59.010Z,63.50
2018-11-06T00:25:28.244Z,64.93
2018-11-06T00:27:57.518Z,64.43
2018-11-06T00:30:26.813Z,59.30
2018-11-06T00:32:56.191Z,53.83
2018-11-06T00:35:25.439Z,47.60
2018-11-06T00:37:54.503Z,44.43
2018-11-06T00:40:23.903Z,45.80
2018-11-06T00:42:53.052Z,44.43
2018-11-06T00:45:22.357Z,45.70
2018-11-06T00:47:51.583Z,45.20
2018-11-06T00:50:20.898Z,43.70
2018-11-06T00:52:50.191Z,45.90
2018-11-06T00:55:19.887Z,62.80
2018-11-06T00:57:49.121Z,71.03
2018-11-06T01:00:19.139Z,69.03
2018-11-06T01:02:48.778Z,66.03
2018-11-06T01:05:18.514Z,66.83
2018-11-06T01:07:48.903Z,66.33
2018-11-06T01:10:18.187Z,64.57
2018-11-06T01:12:47.477Z,65.90
2018-11-06T01:15:17.429Z,57.20
2018-11-06T01:17:47.083Z,54.83
2018-11-06T01:20:18.426Z,54.50
2018-11-06T01:22:47.813Z,53.43
2018-11-06T01:25:17.002Z,56.23
2018-11-06T01:27:46.331Z,53.03
2018-11-06T01:30:17.865Z,52.57
2018-11-06T01:32:47.335Z,48.70
2018-11-06T01:35:17.045Z,50.37
2018-11-06T01:37:46.690Z,51.57
2018-11-06T01:40:17.401Z,50.33
2018-11-06T01:42:47.029Z,53.50
2018-11-06T01:45:16.979Z,50.73
2018-11-06T01:47:46.431Z,49.37
2018-11-06T01:50:16.904Z,50.77
2018-11-06T01:52:46.939Z,52.43
2018-11-06T01:55:16.217Z,49.60
2018-11-06T01:57:45.826Z,49.17
2018-11-06T02:00:16.689Z,48.67
2018-11-06T02:02:45.980Z,47.23
2018-11-06T02:05:16.421Z,48.07
2018-11-06T02:07:46.709Z,46.53
2018-11-06T02:10:16.722Z,44.73
2018-11-06T02:12:46.527Z,42.90
2018-11-06T02:15:16.073Z,44.80
2018-11-06T02:17:45.990Z,42.87
2018-11-06T02:20:15.837Z,39.10
2018-11-06T02:22:45.997Z,43.37
2018-11-06T02:25:15.272Z,42.30
2018-11-06T02:27:44.392Z,38.93
2018-11-06T02:30:15.732Z,36.70
2018-11-06T02:32:45.514Z,36.03
2018-11-06T02:35:14.895Z,35.73
2018-11-06T02:37:44.193Z,36.23
2018-11-06T02:40:14.354Z,37.97
2018-11-06T02:42:43.727Z,38.67
2018-11-06T02:45:13.669Z,37.37
2018-11-06T02:47:43.459Z,35.70
2018-11-06T02:50:13.318Z,34.83
2018-11-06T02:52:42.924Z,29.67
2018-11-06T02:55:12.839Z,30.20
2018-11-06T02:57:42.473Z,28.90
2018-11-06T03:00:14.412Z,29.83
2018-11-06T03:02:44.102Z,31.23
2018-11-06T03:05:13.321Z,31.83
2018-11-06T03:07:42.638Z,33.70
2018-11-06T03:10:13.084Z,35.43
2018-11-06T03:12:43.253Z,38.87
2018-11-06T03:15:13.697Z,38.63
2018-11-06T03:17:43.303Z,39.30
2018-11-06T03:20:12.964Z,38.47
2018-11-06T03:22:42.933Z,36.27
2018-11-06T03:25:12.117Z,32.07
2018-11-06T03:27:41.303Z,32.90
2018-11-06T03:30:13.027Z,30.80
2018-11-06T03:32:42.381Z,31.23
2018-11-06T03:35:13.838Z,33.30
2018-11-06T03:37:43.054Z,33.43
2018-11-06T03:40:12.682Z,32.73
2018-11-06T03:42:42.867Z,33.77
2018-11-06T03:45:12.843Z,35.13
2018-11-06T03:47:42.085Z,35.17
2018-11-06T03:50:12.517Z,35.83
2018-11-06T03:52:41.802Z,37.30
2018-11-06T03:55:11.215Z,38.40
2018-11-06T03:57:40.727Z,42.50
2018-11-06T04:00:12.593Z,39.93
2018-11-06T04:02:42.290Z,36.57
2018-11-06T04:05:11.882Z,37.87
2018-11-06T04:07:41.075Z,37.03
2018-11-06T04:10:11.279Z,36.90
2018-11-06T04:12:41.108Z,34.70
2018-11-06T04:15:12.381Z,34.93
2018-11-06T04:17:45.086Z,33.80
2018-11-06T04:20:14.803Z,33.07
2018-11-06T04:22:44.021Z,32.20
2018-11-06T04:25:13.489Z,32.47
2018-11-06T04:27:42.889Z,31.23
2018-11-06T04:30:13.468Z,32.63
2018-11-06T04:32:43.702Z,30.33
2018-11-06T04:35:13.350Z,34.80
2018-11-06T04:37:42.825Z,42.03
2018-11-06T04:40:13.477Z,43.80
2018-11-06T04:42:42.863Z,42.93
2018-11-06T04:45:12.755Z,43.63
2018-11-06T04:47:42.278Z,47.57
2018-11-06T04:50:11.772Z,45.13
2018-11-06T04:52:41.421Z,44.27
2018-11-06T04:55:12.080Z,41.03
2018-11-06T04:57:41.320Z,40.50
2018-11-06T05:00:12.599Z,41.93
2018-11-06T05:02:42.355Z,39.97
2018-11-06T05:05:11.977Z,38.73
2018-11-06T05:07:41.475Z,41.20
2018-11-06T05:10:12.921Z,45.60
2018-11-06T05:12:42.532Z,65.27
2018-11-06T05:15:13.026Z,84.17
2018-11-06T05:17:42.285Z,83.87
2018-11-06T05:20:14.541Z,97.07
2018-11-06T05:22:44.422Z,91.83
2018-11-06T05:25:14.093Z,104.33
2018-11-06T05:27:43.265Z,97.43
2018-11-06T05:30:12.841Z,102.10
2018-11-06T05:32:43.458Z,106.50
2018-11-06T05:35:13.491Z,101.27
2018-11-06T05:37:42.793Z,98.50
2018-11-06T05:40:22.945Z,86.03
2018-11-06T05:42:52.470Z,79.60
2018-11-06T05:45:21.782Z,71.10
2018-11-06T05:47:51.066Z,64.20
2018-11-06T05:50:20.537Z,66.40
2018-11-06T05:52:49.662Z,69.70
2018-11-06T05:55:18.773Z,69.07
2018-11-06T05:57:48.004Z,47.40
2018-11-06T06:00:17.401Z,39.53
2018-11-06T06:02:46.765Z,36.37
2018-11-06T06:05:16.479Z,36.73
2018-11-06T06:07:45.677Z,35.77
2018-11-06T06:10:14.958Z,35.57
2018-11-06T06:12:44.373Z,35.70
2018-11-06T06:15:13.569Z,35.60
2018-11-06T06:17:42.699Z,31.77
2018-11-06T06:20:12.408Z,33.00
2018-11-06T06:22:41.746Z,34.23
2018-11-06T06:25:11.191Z,33.57
2018-11-06T06:27:40.575Z,35.10
2018-11-06T06:30:12.335Z,37.90
2018-11-06T06:32:42.604Z,37.17
2018-11-06T06:35:12.042Z,34.23
2018-11-06T06:37:41.265Z,31.67
2018-11-06T06:40:12.494Z,32.60
2018-11-06T06:42:42.337Z,36.23
2018-11-06T06:45:13.631Z,36.13
2018-11-06T06:47:43.991Z,37.80
2018-11-06T06:50:14.489Z,36.53
2018-11-06T06:52:44.086Z,46.60
2018-11-06T06:55:14.107Z,68.97
2018-11-06T06:57:44.457Z,52.03
2018-11-06T07:00:18.930Z,58.77
2018-11-06T07:02:48.138Z,92.93
2018-11-06T07:05:18.715Z,83.30
2018-11-06T07:07:48.248Z,55.07
2018-11-06T07:10:18.825Z,39.80
2018-11-06T07:12:49.078Z,34.07
2018-11-06T07:15:19.582Z,33.17
2018-11-06T07:17:49.784Z,33.87
2018-11-06T07:20:22.896Z,35.90
2018-11-06T07:22:53.382Z,42.50
2018-11-06T07:25:22.570Z,40.77
2018-11-06T07:27:52.321Z,39.63
2018-11-06T07:30:22.617Z,40.17
2018-11-06T07:32:51.886Z,37.43
2018-11-06T07:35:21.452Z,42.87
2018-11-06T07:37:50.831Z,38.47
2018-11-06T07:40:20.823Z,32.17
2018-11-06T07:42:50.419Z,33.23
2018-11-06T07:45:20.898Z,29.83
2018-11-06T07:47:50.363Z,29.60
2018-11-06T07:50:19.803Z,31.97
2018-11-06T07:52:49.042Z,31.53
2018-11-06T07:55:19.321Z,33.03
2018-11-06T07:57:48.662Z,30.43
2018-11-06T08:00:20.341Z,27.73
2018-11-06T08:02:49.816Z,29.20
2018-11-06T08:05:19.092Z,30.20
2018-11-06T08:07:49.527Z,31.80
2018-11-06T08:10:18.742Z,34.30
2018-11-06T08:12:49.573Z,37.07
2018-11-06T08:15:18.790Z,36.07
2018-11-06T08:17:48.171Z,25.80
2018-11-06T08:20:17.352Z,26.40
2018-11-06T08:22:46.489Z,24.43
2018-11-06T08:25:16.501Z,24.77
2018-11-06T08:27:46.350Z,26.90
2018-11-06T08:30:15.811Z,22.40
2018-11-06T08:32:45.432Z,20.10
2018-11-06T08:35:15.958Z,21.47
2018-11-06T08:37:45.319Z,19.00
2018-11-06T08:40:16.017Z,17.57
2018-11-06T08:42:45.278Z,16.20
2018-11-06T08:45:15.780Z,18.57
2018-11-06T08:47:45.407Z,16.33
2018-11-06T08:50:15.999Z,15.97
2018-11-06T08:52:45.462Z,17.13
2018-11-06T08:55:15.493Z,16.23
2018-11-06T08:57:45.195Z,14.67
2018-11-06T09:00:18.367Z,16.57
2018-11-06T09:02:48.363Z,16.40
2018-11-06T09:05:18.585Z,16.37
2018-11-06T09:07:47.750Z,16.23
2018-11-06T09:10:17.473Z,17.83
2018-11-06T09:12:46.914Z,17.17
2018-11-06T09:15:16.693Z,19.83
2018-11-06T09:17:46.016Z,16.90
2018-11-06T09:20:16.497Z,18.10
2018-11-06T09:22:45.772Z,18.27
2018-11-06T09:25:16.799Z,17.57
2018-11-06T09:27:45.997Z,17.80
2018-11-06T09:30:16.971Z,20.70
2018-11-06T09:32:46.121Z,20.83
2018-11-06T09:35:15.671Z,21.23
2018-11-06T09:37:45.265Z,22.63
2018-11-06T09:40:18.517Z,24.67
2018-11-06T09:42:47.969Z,27.07
2018-11-06T09:45:17.405Z,27.70
2018-11-06T09:47:46.797Z,33.00
2018-11-06T09:50:17.213Z,29.67
2018-11-06T09:52:47.094Z,29.30
2018-11-06T09:55:16.958Z,28.87
2018-11-06T09:57:47.253Z,26.47
2018-11-06T10:00:21.198Z,26.60
2018-11-06T10:02:50.662Z,24.07
2018-11-06T10:05:25.553Z,23.47
2018-11-06T10:07:59.083Z,19.83
2018-11-06T10:10:29.305Z,19.60
2018-11-06T10:12:58.804Z,18.93
2018-11-06T10:15:28.018Z,18.40
2018-11-06T10:17:57.750Z,18.10
2018-11-06T10:20:27.385Z,17.77
2018-11-06T10:22:56.691Z,17.63
2018-11-06T10:25:27.287Z,15.67
2018-11-06T10:27:56.659Z,15.07
2018-11-06T10:30:26.085Z,15.40
2018-11-06T10:32:55.394Z,17.00
2018-11-06T10:35:24.629Z,15.13
2018-11-06T10:37:53.673Z,15.37
2018-11-06T10:40:23.539Z,15.87
2018-11-06T10:42:52.783Z,16.00
2018-11-06T10:45:22.054Z,18.50
2018-11-06T10:47:51.533Z,21.80
2018-11-06T10:50:20.949Z,20.43
2018-11-06T10:52:50.091Z,18.30
2018-11-06T10:55:19.669Z,20.70
2018-11-06T10:57:48.882Z,18.10
2018-11-06T11:00:23.403Z,19.70
2018-11-06T11:02:57.682Z,15.83
2018-11-06T11:05:28.674Z,16.37
2018-11-06T11:07:57.840Z,16.83
2018-11-06T11:10:26.849Z,15.80
2018-11-06T11:12:56.406Z,17.13
2018-11-06T11:15:25.833Z,17.17
2018-11-06T11:17:55.025Z,15.63
2018-11-06T11:20:24.475Z,16.40
2018-11-06T11:22:53.744Z,15.27
2018-11-06T11:25:22.838Z,14.80
2018-11-06T11:27:52.038Z,14.27
2018-11-06T11:30:21.316Z,13.60
2018-11-06T11:32:50.742Z,13.63
2018-11-06T11:35:20.178Z,12.93
2018-11-06T11:37:49.473Z,12.50
2018-11-06T11:40:18.819Z,12.27
2018-11-06T11:42:49.389Z,13.27
2018-11-06T11:45:18.759Z,13.60
2018-11-06T11:47:48.083Z,16.33
2018-11-06T11:50:17.550Z,15.30
2018-11-06T11:52:46.744Z,15.37
2018-11-06T11:55:15.954Z,15.60
2018-11-06T11:57:45.503Z,14.13
2018-11-06T12:00:16.345Z,13.90
2018-11-06T12:02:46.022Z,14.50
2018-11-06T12:05:15.327Z,13.87
2018-11-06T12:07:44.522Z,13.03
2018-11-06T12:10:14.373Z,12.57
2018-11-06T12:12:43.637Z,12.83
2018-11-06T12:15:16.110Z,13.47
2018-11-06T12:17:46.166Z,13.93
2018-11-06T12:20:16.079Z,12.03
2018-11-06T12:22:45.458Z,12.77
2018-11-06T12:25:15.026Z,12.97
2018-11-06T12:27:44.932Z,13.60
2018-11-06T12:30:16.122Z,12.23
2018-11-06T12:32:45.665Z,11.43
2018-11-06T12:35:15.428Z,11.33
2018-11-06T12:37:44.806Z,10.97
2018-11-06T12:40:15.483Z,11.23
2018-11-06T12:42:44.682Z,11.67
2018-11-06T12:45:15.631Z,11.27
2018-11-06T12:47:45.034Z,12.50
2018-11-06T12:50:14.471Z,12.20
2018-11-06T12:52:44.260Z,12.60
2018-11-06T12:55:14.702Z,13.10
2018-11-06T12:57:44.143Z,14.80
2018-11-06T13:00:17.883Z,17.73
2018-11-06T13:02:47.112Z,17.53
2018-11-06T13:05:16.355Z,15.40
2018-11-06T13:07:58.835Z,14.97
2018-11-06T13:10:28.134Z,18.00
2018-11-06T13:12:57.250Z,19.83
2018-11-06T13:15:26.937Z,13.87
2018-11-06T13:17:56.282Z,15.53
2018-11-06T13:20:25.579Z,13.97
2018-11-06T13:22:54.919Z,13.40
2018-11-06T13:25:24.412Z,13.00
2018-11-06T13:27:53.873Z,14.93
2018-11-06T13:30:23.530Z,13.10
2018-11-06T13:32:52.664Z,12.80
2018-11-06T13:35:21.852Z,12.40
2018-11-06T13:37:51.181Z,12.77
2018-11-06T13:40:20.379Z,12.07
2018-11-06T13:42:49.815Z,13.73
2018-11-06T13:45:20.987Z,13.30
2018-11-06T13:47:50.398Z,12.53
2018-11-06T13:50:20.009Z,13.17
2018-11-06T13:52:49.374Z,14.00
2018-11-06T13:55:18.605Z,15.80
2018-11-06T13:57:48.000Z,13.60
2018-11-06T14:00:19.578Z,12.73
2018-11-06T14:02:48.868Z,12.07
2018-11-06T14:05:18.337Z,11.50
2018-11-06T14:07:47.777Z,11.47
2018-11-06T14:10:17.074Z,12.20
2018-11-06T14:12:46.369Z,12.77
2018-11-06T14:15:15.666Z,12.50
2018-11-06T14:17:44.779Z,13.23
2018-11-06T14:20:15.061Z,12.17
2018-11-06T14:22:44.826Z,12.73
2018-11-06T14:25:14.254Z,13.73
2018-11-06T14:27:43.696Z,17.37
2018-11-06T14:30:16.642Z,17.87
2018-11-06T14:32:46.031Z,18.23
2018-11-06T14:35:16.398Z,15.83
2018-11-06T14:37:47.370Z,14.30
2018-11-06T14:40:17.453Z,12.77
2018-11-06T14:42:47.772Z,11.90
2018-11-06T14:45:19.507Z,11.63
2018-11-06T14:47:49.719Z,14.10
2018-11-06T14:50:20.326Z,11.07
2018-11-06T14:52:49.926Z,10.80
2018-11-06T14:55:19.616Z,13.00
2018-11-06T14:57:48.871Z,13.40
2018-11-06T15:00:20.194Z,12.40
2018-11-06T15:02:53.385Z,19.47
2018-11-06T15:05:23.820Z,15.00
2018-11-06T15:07:53.216Z,12.47
2018-11-06T15:10:22.495Z,13.73
2018-11-06T15:12:52.106Z,12.93
2018-11-06T15:15:21.517Z,12.53
2018-11-06T15:17:50.643Z,12.47
2018-11-06T15:20:22.323Z,13.57
2018-11-06T15:22:51.573Z,18.30
2018-11-06T15:25:20.749Z,15.20
2018-11-06T15:27:50.041Z,15.60
2018-11-06T15:30:19.631Z,13.63
2018-11-06T15:32:48.963Z,14.03
2018-11-06T15:35:20.050Z,13.67
2018-11-06T15:37:49.670Z,13.00
2018-11-06T15:40:20.203Z,15.03
2018-11-06T15:42:49.474Z,14.53
2018-11-06T15:45:19.488Z,14.47
2018-11-06T15:47:49.025Z,19.10
2018-11-06T15:50:19.363Z,17.80
2018-11-06T15:52:49.537Z,15.50
2018-11-06T15:55:18.826Z,17.57
2018-11-06T15:57:48.210Z,21.77
2018-11-06T16:00:20.596Z,16.70
2018-11-06T16:02:49.908Z,17.43
2018-11-06T16:05:19.269Z,18.10
2018-11-06T16:07:49.378Z,18.33
2018-11-06T16:10:19.836Z,17.30
2018-11-06T16:12:49.210Z,31.67
2018-11-06T16:15:18.571Z,35.07
2018-11-06T16:17:48.417Z,36.40
2018-11-06T16:20:19.852Z,47.47
2018-11-06T16:22:49.202Z,105.27
2018-11-06T16:25:19.088Z,60.03
2018-11-06T16:27:48.985Z,57.10
2018-11-06T16:30:19.545Z,58.03
2018-11-06T16:32:49.018Z,59.63
2018-11-06T16:35:19.797Z,63.93
2018-11-06T16:37:49.171Z,74.07
2018-11-06T16:40:18.827Z,73.70
2018-11-06T16:42:48.554Z,68.90
2018-11-06T16:45:19.182Z,64.57
2018-11-06T16:47:49.366Z,74.27
2018-11-06T16:50:19.089Z,76.13
2018-11-06T16:52:48.387Z,79.90
2018-11-06T16:55:18.335Z,78.93
2018-11-06T16:57:47.764Z,81.17
2018-11-06T17:00:18.553Z,72.93
2018-11-06T17:02:48.326Z,74.03
2018-11-06T17:05:17.847Z,79.97
2018-11-06T17:07:47.445Z,83.20
2018-11-06T17:10:17.320Z,92.57
2018-11-06T17:12:46.548Z,92.03
2018-11-06T17:15:19.177Z,90.70
2018-11-06T17:17:50.764Z,82.07
2018-11-06T17:20:22.260Z,68.63
2018-11-06T17:22:52.458Z,55.50
2018-11-06T17:25:22.726Z,53.47
2018-11-06T17:28:23.877Z,53.03
2018-11-06T17:30:53.325Z,48.47
2018-11-06T17:33:22.699Z,49.17
2018-11-06T17:35:52.006Z,50.67
2018-11-06T17:38:21.903Z,50.60
2018-11-06T17:40:51.187Z,54.00
2018-11-06T17:43:20.489Z,55.90
2018-11-06T17:45:50.024Z,87.77
2018-11-06T17:48:19.361Z,106.53
2018-11-06T17:50:49.126Z,126.97
2018-11-06T17:53:20.111Z,115.77
2018-11-06T17:55:49.473Z,96.67
2018-11-06T17:58:18.774Z,89.50
2018-11-06T18:00:48.372Z,81.07
2018-11-06T18:03:23.888Z,71.90
2018-11-06T18:06:00.841Z,66.03
2018-11-06T18:08:30.318Z,65.90
2018-11-06T18:10:59.590Z,61.83
2018-11-06T18:13:28.835Z,63.60
2018-11-06T18:15:57.996Z,64.80
2018-11-06T18:18:27.087Z,65.53
2018-11-06T18:20:56.652Z,62.87
2018-11-06T18:23:25.994Z,61.77
2018-11-06T18:25:55.365Z,66.50
2018-11-06T18:28:24.566Z,65.17
2018-11-06T18:30:53.846Z,68.40
2018-11-06T18:33:23.073Z,73.63
2018-11-06T18:35:52.637Z,76.03
2018-11-06T18:38:21.801Z,73.47
2018-11-06T18:40:51.263Z,71.37
2018-11-06T18:43:20.678Z,69.53
2018-11-06T18:45:49.974Z,69.73
2018-11-06T18:48:19.153Z,68.13
2018-11-06T18:50:48.405Z,64.37
2018-11-06T18:53:17.735Z,62.30
2018-11-06T18:55:47.167Z,63.30
2018-11-06T18:58:16.834Z,60.43
2018-11-06T19:00:46.182Z,54.07
2018-11-06T19:03:15.564Z,53.07
2018-11-06T19:05:44.901Z,44.47
2018-11-06T19:08:14.257Z,41.80
2018-11-06T19:10:43.559Z,39.63
2018-11-06T19:13:12.788Z,36.47
2018-11-06T19:15:42.090Z,34.47
2018-11-06T19:18:12.000Z,34.70
2018-11-06T19:20:41.605Z,36.17
2018-11-06T19:23:10.919Z,34.97
2018-11-06T19:25:40.323Z,37.80
2018-11-06T19:28:10.369Z,41.17
2018-11-06T19:30:39.784Z,42.13
2018-11-06T19:33:09.212Z,49.07
2018-11-06T19:35:38.866Z,61.00
2018-11-06T19:38:09.293Z,52.10
2018-11-06T19:40:38.706Z,41.07
2018-11-06T19:43:15.569Z,40.40
2018-11-06T19:45:44.734Z,41.57
2018-11-06T19:48:14.203Z,42.17
2018-11-06T19:50:43.498Z,40.47
2018-11-06T19:53:12.759Z,40.80
2018-11-06T19:55:42.390Z,39.60
2018-11-06T19:58:11.758Z,38.10
2018-11-06T20:00:40.945Z,34.30
2018-11-06T20:03:10.872Z,33.17
2018-11-06T20:05:40.302Z,32.30
2018-11-06T20:08:09.524Z,30.10
2018-11-06T20:10:38.828Z,28.87
2018-11-06T20:13:08.114Z,28.10
2018-11-06T20:15:38.104Z,30.03
2018-11-06T20:18:07.719Z,30.47
2018-11-06T20:20:37.016Z,31.53
2018-11-06T20:23:06.143Z,31.10
2018-11-06T20:25:35.230Z,29.97
2018-11-06T20:28:06.739Z,32.27
2018-11-06T20:30:35.778Z,30.37
2018-11-06T20:33:04.744Z,28.37
2018-11-06T20:35:33.996Z,36.33
2018-11-06T20:38:04.887Z,39.63
2018-11-06T20:40:34.294Z,50.93
2018-11-06T20:43:03.563Z,44.40
2018-11-06T20:45:33.103Z,40.27
2018-11-06T20:48:02.339Z,31.57
2018-11-06T20:50:31.278Z,27.17
2018-11-06T20:53:00.659Z,27.00
2018-11-06T20:55:30.165Z,24.17
2018-11-06T20:57:59.642Z,23.97
2018-11-06T21:00:29.869Z,23.90
2018-11-06T21:03:00.331Z,25.00
2018-11-06T21:05:29.826Z,22.17
2018-11-06T21:07:59.026Z,20.73
2018-11-06T21:10:29.517Z,18.13
2018-11-06T21:12:58.823Z,18.10
2018-11-06T21:15:28.071Z,19.20
2018-11-06T21:17:57.445Z,19.10
2018-11-06T21:20:27.003Z,18.67
2018-11-06T21:22:56.315Z,18.27
2018-11-06T21:25:25.968Z,17.23
2018-11-06T21:27:55.182Z,17.83
2018-11-06T21:30:24.289Z,18.00
2018-11-06T21:32:54.349Z,17.30
2018-11-06T21:35:23.516Z,17.77
2018-11-06T21:37:52.729Z,17.00
2018-11-06T21:40:22.724Z,17.77
2018-11-06T21:42:52.081Z,17.10
2018-11-06T21:45:21.234Z,16.20
2018-11-06T21:47:51.151Z,17.23
2018-11-06T21:50:20.601Z,17.47
2018-11-06T21:52:49.827Z,16.17
2018-11-06T21:55:20.835Z,17.33
2018-11-06T21:57:50.055Z,16.10
2018-11-06T22:00:20.496Z,18.00
2018-11-06T22:02:50.176Z,16.97
2018-11-06T22:05:20.959Z,16.43
2018-11-06T22:07:50.204Z,15.57
2018-11-06T22:10:20.445Z,16.73
2018-11-06T22:12:49.986Z,15.83
2018-11-06T22:15:19.929Z,16.10
2018-11-06T22:17:49.551Z,15.33
2018-11-06T22:20:19.688Z,14.50
2018-11-06T22:22:49.611Z,15.57
2018-11-06T22:25:18.826Z,13.77
2018-11-06T22:27:47.907Z,14.13
2018-11-06T22:30:17.628Z,13.60
2018-11-06T22:32:47.222Z,14.70
2018-11-06T22:35:17.845Z,13.83
2018-11-06T22:37:47.118Z,14.50
2018-11-06T22:40:17.313Z,13.40
2018-11-06T22:42:46.578Z,14.17
2018-11-06T22:45:16.769Z,14.03
2018-11-06T22:47:45.934Z,14.33
2018-11-06T22:50:17.000Z,14.27
2018-11-06T22:52:47.080Z,14.20
2018-11-06T22:55:16.481Z,15.37
2018-11-06T22:57:45.859Z,17.10
2018-11-06T23:00:18.529Z,19.20
2018-11-06T23:02:47.530Z,20.60
2018-11-06T23:05:16.745Z,17.37
2018-11-06T23:07:51.109Z,16.73
2018-11-06T23:10:20.449Z,15.50
2018-11-06T23:12:49.537Z,15.93
2018-11-06T23:15:18.913Z,14.70
2018-11-06T23:17:48.227Z,15.63
2018-11-06T23:20:17.321Z,14.67
2018-11-06T23:22:46.753Z,14.43
2018-11-06T23:25:16.045Z,16.53
2018-11-06T23:27:45.317Z,15.73
2018-11-06T23:30:15.450Z,15.70
2018-11-06T23:32:44.655Z,15.60
2018-11-06T23:35:14.183Z,15.10
2018-11-06T23:37:43.593Z,15.90
2018-11-06T23:40:12.882Z,14.63
2018-11-06T23:42:42.261Z,15.07
2018-11-06T23:45:11.684Z,15.87
2018-11-06T23:47:40.889Z,15.37
2018-11-06T23:50:10.734Z,15.70
2018-11-06T23:52:40.603Z,15.20
2018-11-06T23:55:10.157Z,16.10
2018-11-06T23:57:39.733Z,14.60
